sensor_id;sensor_type;location;lat;lon;timestamp;P1;durP1;ratioP1;P2;durP2;ratioP2
74519;SDS011;63002;48.134;-1.948;2024-01-25T06:00:10;2.83;;;0.50;;
74519;SDS011;63002;48.134;-1.948;2024-01-25T06:02:40;2.00;;;0.30;;
74519;SDS011;63002;48.134;-1.948;2024-01-25T06:05:06;1.30;;;0.50;;
74519;SDS011;63002;48.134;-1.948;2024-01-25T06:07:32;1.27;;;0.40;;
74519;SDS011;63002;48.134;-1.948;2024-01-25T06:09:58;2.55;;;0.70;;
74519;SDS011;63002;48.134;-1.948;2024-01-25T06:12:24;4.50;;;0.40;;
74519;SDS011;63002;48.134;-1.948;2024-01-25T06:14:49;2.87;;;0.50;;
74519;SDS011;63002;48.134;-1.948;2024-01-25T06:17:17;6.88;;;0.98;;
74519;SDS011;63002;48.134;-1.948;2024-01-25T06:19:43;9.23;;;2.22;;
74519;SDS011;63002;48.134;-1.948;2024-01-25T06:22:09;11.93;;;2.50;;
74519;SDS011;63002;48.134;-1.948;2024-01-25T06:24:37;11.63;;;2.10;;
74519;SDS011;63002;48.134;-1.948;2024-01-25T06:27:03;9.45;;;1.67;;
74519;SDS011;63002;48.134;-1.948;2024-01-25T06:29:29;14.80;;;2.10;;
74519;SDS011;63002;48.134;-1.948;2024-01-25T06:31:54;5.93;;;1.50;;
74519;SDS011;63002;48.134;-1.948;2024-01-25T06:34:20;3.60;;;0.80;;
74519;SDS011;63002;48.134;-1.948;2024-01-25T06:36:46;5.10;;;0.87;;
74519;SDS011;63002;48.134;-1.948;2024-01-25T06:39:11;6.18;;;0.73;;
74519;SDS011;63002;48.134;-1.948;2024-01-25T06:41:37;6.40;;;0.83;;
74519;SDS011;63002;48.134;-1.948;2024-01-25T06:44:03;3.65;;;0.60;;
74519;SDS011;63002;48.134;-1.948;2024-01-25T06:46:28;7.10;;;0.87;;
74519;SDS011;63002;48.134;-1.948;2024-01-25T06:48:54;3.72;;;0.63;;
74519;SDS011;63002;48.134;-1.948;2024-01-25T06:51:20;4.77;;;0.70;;
74519;SDS011;63002;48.134;-1.948;2024-01-25T06:53:46;3.60;;;0.70;;
74519;SDS011;63002;48.134;-1.948;2024-01-25T06:56:11;4.05;;;0.80;;
74519;SDS011;63002;48.134;-1.948;2024-01-25T06:58:37;4.60;;;0.73;;
74519;SDS011;63002;48.134;-1.948;2024-01-25T07:01:03;5.77;;;0.73;;
74519;SDS011;63002;48.134;-1.948;2024-01-25T07:03:29;3.55;;;0.55;;
74519;SDS011;63002;48.134;-1.948;2024-01-25T07:05:55;4.30;;;0.70;;
74519;SDS011;63002;48.134;-1.948;2024-01-25T07:08:21;4.87;;;0.60;;
74519;SDS011;63002;48.134;-1.948;2024-01-25T07:10:46;5.50;;;1.10;;
74519;SDS011;63002;48.134;-1.948;2024-01-25T07:13:12;5.68;;;0.80;;
74519;SDS011;63002;48.134;-1.948;2024-01-25T07:15:38;4.23;;;0.90;;
74519;SDS011;63002;48.134;-1.948;2024-01-25T07:18:04;2.80;;;0.80;;
74519;SDS011;63002;48.134;-1.948;2024-01-25T07:20:30;4.25;;;0.80;;
74519;SDS011;63002;48.134;-1.948;2024-01-25T07:22:56;4.13;;;0.83;;
74519;SDS011;63002;48.134;-1.948;2024-01-25T07:25:21;3.97;;;0.70;;
74519;SDS011;63002;48.134;-1.948;2024-01-25T07:27:47;3.33;;;0.53;;
74519;SDS011;63002;48.134;-1.948;2024-01-25T07:30:14;4.13;;;0.80;;
74519;SDS011;63002;48.134;-1.948;2024-01-25T07:32:40;4.00;;;0.70;;
74519;SDS011;63002;48.134;-1.948;2024-01-25T07:35:10;6.45;;;0.70;;
74519;SDS011;63002;48.134;-1.948;2024-01-25T07:37:37;3.07;;;0.60;;
74519;SDS011;63002;48.134;-1.948;2024-01-25T07:40:03;7.20;;;0.90;;
74519;SDS011;63002;48.134;-1.948;2024-01-25T07:42:29;3.25;;;0.70;;
74519;SDS011;63002;48.134;-1.948;2024-01-25T07:44:55;3.17;;;0.60;;
74519;SDS011;63002;48.134;-1.948;2024-01-25T07:47:21;5.90;;;0.80;;
74519;SDS011;63002;48.134;-1.948;2024-01-25T07:49:47;4.95;;;0.75;;
74519;SDS011;63002;48.134;-1.948;2024-01-25T07:52:13;5.07;;;0.93;;
74519;SDS011;63002;48.134;-1.948;2024-01-25T07:54:39;3.08;;;0.57;;
74519;SDS011;63002;48.134;-1.948;2024-01-25T07:57:04;3.90;;;1.00;;
74519;SDS011;63002;48.134;-1.948;2024-01-25T07:59:30;6.70;;;0.95;;
74519;SDS011;63002;48.134;-1.948;2024-01-25T08:01:56;4.83;;;0.80;;
74519;SDS011;63002;48.134;-1.948;2024-01-25T08:04:21;3.47;;;0.77;;
74519;SDS011;63002;48.134;-1.948;2024-01-25T08:06:47;2.63;;;0.60;;
74519;SDS011;63002;48.134;-1.948;2024-01-25T08:09:13;7.45;;;0.75;;
74519;SDS011;63002;48.134;-1.948;2024-01-25T08:11:39;2.70;;;0.60;;
74519;SDS011;63002;48.134;-1.948;2024-01-25T08:14:05;3.08;;;0.88;;
74519;SDS011;63002;48.134;-1.948;2024-01-25T08:16:31;3.70;;;0.68;;
74519;SDS011;63002;48.134;-1.948;2024-01-25T08:18:56;4.43;;;0.87;;
74519;SDS011;63002;48.134;-1.948;2024-01-25T08:21:23;4.78;;;0.80;;
74519;SDS011;63002;48.134;-1.948;2024-01-25T08:23:49;3.17;;;0.60;;
74519;SDS011;63002;48.134;-1.948;2024-01-25T08:26:15;4.20;;;0.50;;
74519;SDS011;63002;48.134;-1.948;2024-01-25T08:28:41;3.22;;;0.60;;
74519;SDS011;63002;48.134;-1.948;2024-01-25T08:31:10;3.63;;;0.70;;
74519;SDS011;63002;48.134;-1.948;2024-01-25T08:33:36;4.30;;;0.63;;
74519;SDS011;63002;48.134;-1.948;2024-01-25T08:36:06;3.45;;;0.70;;
74519;SDS011;63002;48.134;-1.948;2024-01-25T08:38:32;4.22;;;0.70;;
74519;SDS011;63002;48.134;-1.948;2024-01-25T08:40:58;2.37;;;0.70;;
74519;SDS011;63002;48.134;-1.948;2024-01-25T08:43:24;3.78;;;0.60;;
74519;SDS011;63002;48.134;-1.948;2024-01-25T08:45:49;2.60;;;0.70;;
74519;SDS011;63002;48.134;-1.948;2024-01-25T08:48:15;5.40;;;0.93;;
74519;SDS011;63002;48.134;-1.948;2024-01-25T08:50:41;3.53;;;0.70;;
74519;SDS011;63002;48.134;-1.948;2024-01-25T08:53:07;3.28;;;0.50;;
74519;SDS011;63002;48.134;-1.948;2024-01-25T08:55:33;1.33;;;0.40;;
74519;SDS011;63002;48.134;-1.948;2024-01-25T08:57:59;2.92;;;0.77;;
74519;SDS011;63002;48.134;-1.948;2024-01-25T09:00:24;4.57;;;0.52;;
74519;SDS011;63002;48.134;-1.948;2024-01-25T09:02:50;4.47;;;0.77;;
74519;SDS011;63002;48.134;-1.948;2024-01-25T09:05:16;2.50;;;0.60;;
74519;SDS011;63002;48.134;-1.948;2024-01-25T09:07:41;2.58;;;0.57;;
74519;SDS011;63002;48.134;-1.948;2024-01-25T09:10:07;2.55;;;0.50;;
74519;SDS011;63002;48.134;-1.948;2024-01-25T09:12:34;5.05;;;0.93;;
74519;SDS011;63002;48.134;-1.948;2024-01-25T09:15:00;4.20;;;0.80;;
74519;SDS011;63002;48.134;-1.948;2024-01-25T09:17:27;2.58;;;0.57;;
74519;SDS011;63002;48.134;-1.948;2024-01-25T09:19:52;2.92;;;0.50;;
74519;SDS011;63002;48.134;-1.948;2024-01-25T09:22:18;4.03;;;0.80;;
74519;SDS011;63002;48.134;-1.948;2024-01-25T09:24:47;2.13;;;0.55;;
74519;SDS011;63002;48.134;-1.948;2024-01-25T09:27:13;5.32;;;0.82;;
74519;SDS011;63002;48.134;-1.948;2024-01-25T09:29:40;3.38;;;0.55;;
74519;SDS011;63002;48.134;-1.948;2024-01-25T09:32:06;2.37;;;0.60;;
74519;SDS011;63002;48.134;-1.948;2024-01-25T09:34:34;1.55;;;0.40;;
74519;SDS011;63002;48.134;-1.948;2024-01-25T09:37:00;3.05;;;0.60;;
74519;SDS011;63002;48.134;-1.948;2024-01-25T09:39:26;2.15;;;0.60;;
74519;SDS011;63002;48.134;-1.948;2024-01-25T09:41:52;1.77;;;0.43;;
74519;SDS011;63002;48.134;-1.948;2024-01-25T09:44:18;2.70;;;0.50;;
74519;SDS011;63002;48.134;-1.948;2024-01-25T09:46:44;3.58;;;0.90;;
74519;SDS011;63002;48.134;-1.948;2024-01-25T09:49:13;2.90;;;0.60;;
74519;SDS011;63002;48.134;-1.948;2024-01-25T09:51:42;2.47;;;0.68;;
74519;SDS011;63002;48.134;-1.948;2024-01-25T09:54:08;2.83;;;0.50;;
74519;SDS011;63002;48.134;-1.948;2024-01-25T09:56:35;2.55;;;0.60;;
74519;SDS011;63002;48.134;-1.948;2024-01-25T09:59:01;4.18;;;0.50;;
74519;SDS011;63002;48.134;-1.948;2024-01-25T10:01:28;1.25;;;0.40;;
74519;SDS011;63002;48.134;-1.948;2024-01-25T10:03:54;2.47;;;0.60;;
74519;SDS011;63002;48.134;-1.948;2024-01-25T10:06:21;2.35;;;0.60;;
74519;SDS011;63002;48.134;-1.948;2024-01-25T10:08:48;3.45;;;0.75;;
74519;SDS011;63002;48.134;-1.948;2024-01-25T10:11:13;2.53;;;0.50;;
74519;SDS011;63002;48.134;-1.948;2024-01-25T10:13:43;2.72;;;0.60;;
74519;SDS011;63002;48.134;-1.948;2024-01-25T10:16:16;1.88;;;0.63;;
74519;SDS011;63002;48.134;-1.948;2024-01-25T10:18:44;2.88;;;0.70;;
74519;SDS011;63002;48.134;-1.948;2024-01-25T10:21:12;3.75;;;0.70;;
74519;SDS011;63002;48.134;-1.948;2024-01-25T10:23:38;1.58;;;0.40;;
74519;SDS011;63002;48.134;-1.948;2024-01-25T10:26:05;2.38;;;0.63;;
74519;SDS011;63002;48.134;-1.948;2024-01-25T10:28:33;3.03;;;0.57;;
74519;SDS011;63002;48.134;-1.948;2024-01-25T10:31:02;2.38;;;0.60;;
74519;SDS011;63002;48.134;-1.948;2024-01-25T10:33:33;2.72;;;0.70;;
74519;SDS011;63002;48.134;-1.948;2024-01-25T10:36:04;2.57;;;0.60;;
74519;SDS011;63002;48.134;-1.948;2024-01-25T10:38:36;2.03;;;0.50;;
74519;SDS011;63002;48.134;-1.948;2024-01-25T10:41:03;1.60;;;0.60;;
74519;SDS011;63002;48.134;-1.948;2024-01-25T10:43:29;1.95;;;0.50;;
74519;SDS011;63002;48.134;-1.948;2024-01-25T10:45:56;2.30;;;0.60;;
74519;SDS011;63002;48.134;-1.948;2024-01-25T10:48:24;2.90;;;0.80;;
74519;SDS011;63002;48.134;-1.948;2024-01-25T10:50:51;2.55;;;0.50;;
74519;SDS011;63002;48.134;-1.948;2024-01-25T10:53:17;2.70;;;0.60;;
74519;SDS011;63002;48.134;-1.948;2024-01-25T10:55:44;1.58;;;0.45;;
74519;SDS011;63002;48.134;-1.948;2024-01-25T10:58:12;1.48;;;0.40;;
74519;SDS011;63002;48.134;-1.948;2024-01-25T11:00:41;2.80;;;0.47;;
74519;SDS011;63002;48.134;-1.948;2024-01-25T11:03:07;1.67;;;0.57;;
74519;SDS011;63002;48.134;-1.948;2024-01-25T11:05:33;1.95;;;0.60;;
74519;SDS011;63002;48.134;-1.948;2024-01-25T11:08:00;1.10;;;0.40;;
74519;SDS011;63002;48.134;-1.948;2024-01-25T11:10:26;2.37;;;0.87;;
74519;SDS011;63002;48.134;-1.948;2024-01-25T11:12:56;2.45;;;0.57;;
74519;SDS011;63002;48.134;-1.948;2024-01-25T11:15:30;2.05;;;0.70;;
74519;SDS011;63002;48.134;-1.948;2024-01-25T11:18:00;2.33;;;0.60;;
74519;SDS011;63002;48.134;-1.948;2024-01-25T11:20:28;2.75;;;0.80;;
74519;SDS011;63002;48.134;-1.948;2024-01-25T11:22:55;3.00;;;0.67;;
74519;SDS011;63002;48.134;-1.948;2024-01-25T11:25:27;3.25;;;0.60;;
74519;SDS011;63002;48.134;-1.948;2024-01-25T11:27:56;2.95;;;0.65;;
74519;SDS011;63002;48.134;-1.948;2024-01-25T11:30:22;3.03;;;0.90;;
74519;SDS011;63002;48.134;-1.948;2024-01-25T11:32:48;2.15;;;0.82;;
74519;SDS011;63002;48.134;-1.948;2024-01-25T11:35:15;2.83;;;0.50;;
74519;SDS011;63002;48.134;-1.948;2024-01-25T11:37:45;1.90;;;0.50;;
74519;SDS011;63002;48.134;-1.948;2024-01-25T11:40:12;1.67;;;0.50;;
74519;SDS011;63002;48.134;-1.948;2024-01-25T11:42:39;2.35;;;0.60;;
74519;SDS011;63002;48.134;-1.948;2024-01-25T11:45:07;1.45;;;0.43;;
74519;SDS011;63002;48.134;-1.948;2024-01-25T11:47:34;3.23;;;0.53;;
74519;SDS011;63002;48.134;-1.948;2024-01-25T11:50:01;1.60;;;0.43;;
74519;SDS011;63002;48.134;-1.948;2024-01-25T11:52:27;2.22;;;0.63;;
74519;SDS011;63002;48.134;-1.948;2024-01-25T11:54:53;2.03;;;0.55;;
74519;SDS011;63002;48.134;-1.948;2024-01-25T11:57:19;2.07;;;0.70;;
74519;SDS011;63002;48.134;-1.948;2024-01-25T11:59:45;2.50;;;0.60;;
74519;SDS011;63002;48.134;-1.948;2024-01-25T12:02:12;2.03;;;0.50;;
74519;SDS011;63002;48.134;-1.948;2024-01-25T12:04:39;3.83;;;0.65;;
74519;SDS011;63002;48.134;-1.948;2024-01-25T12:07:05;1.90;;;0.50;;
74519;SDS011;63002;48.134;-1.948;2024-01-25T12:09:31;2.00;;;0.70;;
74519;SDS011;63002;48.134;-1.948;2024-01-25T12:11:57;1.90;;;0.50;;
74519;SDS011;63002;48.134;-1.948;2024-01-25T12:14:25;1.60;;;0.50;;
74519;SDS011;63002;48.134;-1.948;2024-01-25T12:16:55;2.22;;;0.60;;
74519;SDS011;63002;48.134;-1.948;2024-01-25T12:19:21;2.40;;;1.02;;
74519;SDS011;63002;48.134;-1.948;2024-01-25T12:21:47;1.40;;;0.40;;
74519;SDS011;63002;48.134;-1.948;2024-01-25T12:24:13;1.95;;;0.52;;
74519;SDS011;63002;48.134;-1.948;2024-01-25T12:26:39;1.52;;;0.40;;
74519;SDS011;63002;48.134;-1.948;2024-01-25T12:29:06;2.72;;;0.40;;
74519;SDS011;63002;48.134;-1.948;2024-01-25T12:31:33;1.92;;;0.50;;
74519;SDS011;63002;48.134;-1.948;2024-01-25T12:33:59;2.47;;;0.50;;
74519;SDS011;63002;48.134;-1.948;2024-01-25T12:36:26;2.05;;;0.50;;
74519;SDS011;63002;48.134;-1.948;2024-01-25T12:38:51;1.50;;;0.40;;
74519;SDS011;63002;48.134;-1.948;2024-01-25T12:41:17;1.88;;;0.47;;
74519;SDS011;63002;48.134;-1.948;2024-01-25T12:43:43;1.30;;;0.40;;
74519;SDS011;63002;48.134;-1.948;2024-01-25T12:46:09;2.28;;;0.40;;
74519;SDS011;63002;48.134;-1.948;2024-01-25T12:48:34;1.60;;;0.50;;
74519;SDS011;63002;48.134;-1.948;2024-01-25T12:51:00;1.70;;;0.40;;
74519;SDS011;63002;48.134;-1.948;2024-01-25T12:53:27;1.90;;;0.60;;
74519;SDS011;63002;48.134;-1.948;2024-01-25T12:55:52;1.40;;;0.40;;
74519;SDS011;63002;48.134;-1.948;2024-01-25T12:58:18;1.60;;;0.40;;
74519;SDS011;63002;48.134;-1.948;2024-01-25T13:00:44;1.73;;;0.50;;
74519;SDS011;63002;48.134;-1.948;2024-01-25T13:03:10;2.10;;;0.60;;
74519;SDS011;63002;48.134;-1.948;2024-01-25T13:05:37;2.15;;;0.70;;
74519;SDS011;63002;48.134;-1.948;2024-01-25T13:08:04;1.85;;;0.60;;
74519;SDS011;63002;48.134;-1.948;2024-01-25T13:10:31;2.08;;;0.52;;
74519;SDS011;63002;48.134;-1.948;2024-01-25T13:12:57;1.20;;;0.47;;
74519;SDS011;63002;48.134;-1.948;2024-01-25T13:15:23;1.42;;;0.40;;
74519;SDS011;63002;48.134;-1.948;2024-01-25T13:17:49;1.98;;;0.40;;
74519;SDS011;63002;48.134;-1.948;2024-01-25T13:20:14;1.30;;;0.30;;
74519;SDS011;63002;48.134;-1.948;2024-01-25T13:22:40;1.98;;;0.50;;
74519;SDS011;63002;48.134;-1.948;2024-01-25T13:25:06;1.30;;;0.57;;
74519;SDS011;63002;48.134;-1.948;2024-01-25T13:27:35;1.00;;;0.40;;
74519;SDS011;63002;48.134;-1.948;2024-01-25T13:30:00;2.13;;;0.65;;
74519;SDS011;63002;48.134;-1.948;2024-01-25T13:32:26;2.53;;;0.40;;
74519;SDS011;63002;48.134;-1.948;2024-01-25T13:34:52;2.17;;;0.52;;
74519;SDS011;63002;48.134;-1.948;2024-01-25T13:37:18;2.03;;;0.60;;
74519;SDS011;63002;48.134;-1.948;2024-01-25T13:39:44;1.85;;;0.60;;
74519;SDS011;63002;48.134;-1.948;2024-01-25T13:42:09;1.77;;;0.60;;
74519;SDS011;63002;48.134;-1.948;2024-01-25T13:44:35;1.70;;;0.50;;
74519;SDS011;63002;48.134;-1.948;2024-01-25T13:47:03;1.08;;;0.50;;
74519;SDS011;63002;48.134;-1.948;2024-01-25T13:49:29;2.47;;;0.50;;
74519;SDS011;63002;48.134;-1.948;2024-01-25T13:51:55;1.77;;;0.47;;
74519;SDS011;63002;48.134;-1.948;2024-01-25T13:54:20;1.37;;;0.57;;
74519;SDS011;63002;48.134;-1.948;2024-01-25T13:56:46;1.50;;;0.60;;
74519;SDS011;63002;48.134;-1.948;2024-01-25T13:59:12;2.17;;;0.50;;
74519;SDS011;63002;48.134;-1.948;2024-01-25T14:01:37;2.05;;;0.52;;
74519;SDS011;63002;48.134;-1.948;2024-01-25T14:04:03;1.27;;;0.43;;
74519;SDS011;63002;48.134;-1.948;2024-01-25T14:06:29;1.63;;;0.50;;
74519;SDS011;63002;48.134;-1.948;2024-01-25T14:08:55;2.37;;;0.67;;
74519;SDS011;63002;48.134;-1.948;2024-01-25T14:11:20;1.23;;;0.50;;
74519;SDS011;63002;48.134;-1.948;2024-01-25T14:13:46;1.67;;;0.50;;
74519;SDS011;63002;48.134;-1.948;2024-01-25T14:16:12;2.20;;;0.52;;
74519;SDS011;63002;48.134;-1.948;2024-01-25T14:18:42;1.58;;;0.50;;
74519;SDS011;63002;48.134;-1.948;2024-01-25T14:21:09;2.03;;;0.40;;
74519;SDS011;63002;48.134;-1.948;2024-01-25T14:23:35;3.47;;;0.55;;
74519;SDS011;63002;48.134;-1.948;2024-01-25T14:26:01;2.33;;;0.57;;
74519;SDS011;63002;48.134;-1.948;2024-01-25T14:28:26;1.40;;;0.47;;
74519;SDS011;63002;48.134;-1.948;2024-01-25T14:30:52;2.20;;;0.63;;
74519;SDS011;63002;48.134;-1.948;2024-01-25T14:33:18;1.58;;;0.60;;
74519;SDS011;63002;48.134;-1.948;2024-01-25T14:35:43;1.87;;;0.60;;
74519;SDS011;63002;48.134;-1.948;2024-01-25T14:38:09;1.98;;;0.55;;
74519;SDS011;63002;48.134;-1.948;2024-01-25T14:40:35;1.95;;;0.50;;
74519;SDS011;63002;48.134;-1.948;2024-01-25T14:43:01;2.23;;;0.63;;
74519;SDS011;63002;48.134;-1.948;2024-01-25T14:45:27;1.77;;;0.57;;
74519;SDS011;63002;48.134;-1.948;2024-01-25T14:47:56;1.60;;;0.47;;
74519;SDS011;63002;48.134;-1.948;2024-01-25T14:50:22;1.87;;;0.50;;
74519;SDS011;63002;48.134;-1.948;2024-01-25T14:52:48;1.50;;;0.40;;
74519;SDS011;63002;48.134;-1.948;2024-01-25T14:55:14;1.88;;;0.52;;
74519;SDS011;63002;48.134;-1.948;2024-01-25T14:57:40;1.40;;;0.43;;
74519;SDS011;63002;48.134;-1.948;2024-01-25T15:00:06;1.45;;;0.50;;
74519;SDS011;63002;48.134;-1.948;2024-01-25T15:02:33;1.67;;;0.60;;
74519;SDS011;63002;48.134;-1.948;2024-01-25T15:04:59;2.25;;;0.50;;
74519;SDS011;63002;48.134;-1.948;2024-01-25T15:07:24;2.23;;;0.70;;
74519;SDS011;63002;48.134;-1.948;2024-01-25T15:09:50;2.97;;;0.60;;
74519;SDS011;63002;48.134;-1.948;2024-01-25T15:12:16;1.87;;;0.50;;
74519;SDS011;63002;48.134;-1.948;2024-01-25T15:14:43;1.42;;;0.55;;
74519;SDS011;63002;48.134;-1.948;2024-01-25T15:17:09;1.70;;;0.47;;
74519;SDS011;63002;48.134;-1.948;2024-01-25T15:19:34;1.20;;;0.40;;
74519;SDS011;63002;48.134;-1.948;2024-01-25T15:22:02;2.03;;;0.70;;
74519;SDS011;63002;48.134;-1.948;2024-01-25T15:24:29;1.35;;;0.45;;
74519;SDS011;63002;48.134;-1.948;2024-01-25T15:26:56;1.73;;;0.50;;
74519;SDS011;63002;48.134;-1.948;2024-01-25T15:29:22;1.17;;;0.52;;
74519;SDS011;63002;48.134;-1.948;2024-01-25T15:31:48;3.13;;;0.80;;
74519;SDS011;63002;48.134;-1.948;2024-01-25T15:34:14;1.20;;;0.40;;
74519;SDS011;63002;48.134;-1.948;2024-01-25T15:36:40;1.40;;;0.50;;
74519;SDS011;63002;48.134;-1.948;2024-01-25T15:39:09;1.75;;;0.70;;
74519;SDS011;63002;48.134;-1.948;2024-01-25T15:41:35;2.58;;;0.70;;
74519;SDS011;63002;48.134;-1.948;2024-01-25T15:44:01;1.52;;;0.50;;
74519;SDS011;63002;48.134;-1.948;2024-01-25T15:46:27;1.25;;;0.50;;
74519;SDS011;63002;48.134;-1.948;2024-01-25T15:48:53;1.73;;;0.57;;
74519;SDS011;63002;48.134;-1.948;2024-01-25T15:51:20;2.15;;;0.68;;
74519;SDS011;63002;48.134;-1.948;2024-01-25T15:53:47;2.42;;;0.68;;
74519;SDS011;63002;48.134;-1.948;2024-01-25T15:56:13;1.98;;;0.60;;
74519;SDS011;63002;48.134;-1.948;2024-01-25T15:58:39;1.95;;;0.70;;
74519;SDS011;63002;48.134;-1.948;2024-01-25T16:01:04;1.48;;;0.50;;
74519;SDS011;63002;48.134;-1.948;2024-01-25T16:03:30;1.47;;;0.60;;
74519;SDS011;63002;48.134;-1.948;2024-01-25T16:05:56;2.05;;;0.50;;
74519;SDS011;63002;48.134;-1.948;2024-01-25T16:08:22;2.20;;;0.67;;
74519;SDS011;63002;48.134;-1.948;2024-01-25T16:10:48;2.10;;;0.80;;
74519;SDS011;63002;48.134;-1.948;2024-01-25T16:13:14;1.60;;;0.50;;
74519;SDS011;63002;48.134;-1.948;2024-01-25T16:15:40;1.23;;;0.45;;
74519;SDS011;63002;48.134;-1.948;2024-01-25T16:18:06;2.70;;;0.50;;
74519;SDS011;63002;48.134;-1.948;2024-01-25T16:20:32;1.35;;;0.55;;
74519;SDS011;63002;48.134;-1.948;2024-01-25T16:22:58;1.20;;;0.50;;
74519;SDS011;63002;48.134;-1.948;2024-01-25T16:25:24;1.23;;;0.43;;
74519;SDS011;63002;48.134;-1.948;2024-01-25T16:27:50;1.88;;;0.60;;
74519;SDS011;63002;48.134;-1.948;2024-01-25T16:30:16;4.53;;;0.60;;
74519;SDS011;63002;48.134;-1.948;2024-01-25T16:32:42;2.13;;;0.60;;
74519;SDS011;63002;48.134;-1.948;2024-01-25T16:35:08;1.57;;;0.60;;
74519;SDS011;63002;48.134;-1.948;2024-01-25T16:37:33;2.72;;;0.60;;
74519;SDS011;63002;48.134;-1.948;2024-01-25T16:39:59;2.15;;;0.60;;
74519;SDS011;63002;48.134;-1.948;2024-01-25T16:42:26;1.70;;;0.60;;
74519;SDS011;63002;48.134;-1.948;2024-01-25T16:44:52;1.60;;;0.70;;
74519;SDS011;63002;48.134;-1.948;2024-01-25T16:47:18;2.30;;;0.75;;
74519;SDS011;63002;48.134;-1.948;2024-01-25T16:49:43;1.70;;;0.73;;
74519;SDS011;63002;48.134;-1.948;2024-01-25T16:52:09;3.00;;;0.57;;
74519;SDS011;63002;48.134;-1.948;2024-01-25T16:54:35;2.78;;;0.80;;
74519;SDS011;63002;48.134;-1.948;2024-01-25T16:57:00;2.00;;;0.67;;
74519;SDS011;63002;48.134;-1.948;2024-01-25T16:59:26;2.47;;;0.70;;
74519;SDS011;63002;48.134;-1.948;2024-01-25T17:01:53;1.83;;;0.65;;
74519;SDS011;63002;48.134;-1.948;2024-01-25T17:04:18;2.17;;;0.50;;
74519;SDS011;63002;48.134;-1.948;2024-01-25T17:06:44;3.57;;;0.60;;
74519;SDS011;63002;48.134;-1.948;2024-01-25T17:09:11;1.85;;;0.55;;
74519;SDS011;63002;48.134;-1.948;2024-01-25T17:11:40;2.38;;;0.60;;
74519;SDS011;63002;48.134;-1.948;2024-01-25T17:14:06;2.85;;;0.50;;
74519;SDS011;63002;48.134;-1.948;2024-01-25T17:16:31;2.25;;;0.60;;
74519;SDS011;63002;48.134;-1.948;2024-01-25T17:18:58;3.72;;;0.80;;
74519;SDS011;63002;48.134;-1.948;2024-01-25T17:21:27;2.22;;;0.55;;
74519;SDS011;63002;48.134;-1.948;2024-01-25T17:23:53;2.42;;;0.60;;
74519;SDS011;63002;48.134;-1.948;2024-01-25T17:26:19;4.10;;;0.90;;
74519;SDS011;63002;48.134;-1.948;2024-01-25T17:28:46;2.00;;;0.80;;
74519;SDS011;63002;48.134;-1.948;2024-01-25T17:31:13;5.35;;;0.73;;
74519;SDS011;63002;48.134;-1.948;2024-01-25T17:33:39;1.65;;;0.60;;
74519;SDS011;63002;48.134;-1.948;2024-01-25T17:36:10;3.42;;;0.90;;
74519;SDS011;63002;48.134;-1.948;2024-01-25T17:38:36;5.63;;;1.40;;
74519;SDS011;63002;48.134;-1.948;2024-01-25T17:41:05;3.78;;;0.80;;
74519;SDS011;63002;48.134;-1.948;2024-01-25T17:43:31;3.63;;;0.63;;
74519;SDS011;63002;48.134;-1.948;2024-01-25T17:45:58;4.00;;;0.90;;
74519;SDS011;63002;48.134;-1.948;2024-01-25T17:48:25;4.32;;;0.68;;
74519;SDS011;63002;48.134;-1.948;2024-01-25T17:50:50;2.80;;;0.63;;
74519;SDS011;63002;48.134;-1.948;2024-01-25T17:53:16;2.80;;;0.85;;
74519;SDS011;63002;48.134;-1.948;2024-01-25T17:55:42;4.70;;;1.00;;
74519;SDS011;63002;48.134;-1.948;2024-01-25T17:58:07;3.33;;;0.93;;
74519;SDS011;63002;48.134;-1.948;2024-01-25T18:00:33;3.10;;;1.00;;
74519;SDS011;63002;48.134;-1.948;2024-01-25T18:02:59;2.85;;;0.80;;
74519;SDS011;63002;48.134;-1.948;2024-01-25T18:05:24;3.60;;;0.80;;
74519;SDS011;63002;48.134;-1.948;2024-01-25T18:07:51;2.90;;;0.77;;
74519;SDS011;63002;48.134;-1.948;2024-01-25T18:10:17;4.70;;;0.77;;
74519;SDS011;63002;48.134;-1.948;2024-01-25T18:12:42;3.17;;;0.70;;
74519;SDS011;63002;48.134;-1.948;2024-01-25T18:15:08;2.65;;;0.80;;
74519;SDS011;63002;48.134;-1.948;2024-01-25T18:17:34;5.07;;;0.70;;
74519;SDS011;63002;48.134;-1.948;2024-01-25T18:20:01;2.42;;;0.80;;
74519;SDS011;63002;48.134;-1.948;2024-01-25T18:22:31;3.05;;;0.77;;
74519;SDS011;63002;48.134;-1.948;2024-01-25T18:24:56;5.35;;;1.05;;
74519;SDS011;63002;48.134;-1.948;2024-01-25T18:27:22;1.77;;;0.53;;
74519;SDS011;63002;48.134;-1.948;2024-01-25T18:29:48;1.85;;;0.40;;
74519;SDS011;63002;48.134;-1.948;2024-01-25T18:32:14;5.68;;;1.00;;
74519;SDS011;63002;48.134;-1.948;2024-01-25T18:34:39;2.60;;;0.60;;
74519;SDS011;63002;48.134;-1.948;2024-01-25T18:37:05;4.10;;;0.93;;
74519;SDS011;63002;48.134;-1.948;2024-01-25T18:39:31;2.40;;;0.70;;
74519;SDS011;63002;48.134;-1.948;2024-01-25T18:41:56;3.85;;;0.90;;
74519;SDS011;63002;48.134;-1.948;2024-01-25T18:44:22;2.93;;;0.97;;
74519;SDS011;63002;48.134;-1.948;2024-01-25T18:46:48;3.92;;;1.27;;
74519;SDS011;63002;48.134;-1.948;2024-01-25T18:49:14;2.92;;;0.77;;
74519;SDS011;63002;48.134;-1.948;2024-01-25T18:51:40;4.37;;;0.90;;
74519;SDS011;63002;48.134;-1.948;2024-01-25T18:54:07;12.63;;;2.92;;
74519;SDS011;63002;48.134;-1.948;2024-01-25T18:56:36;42.83;;;15.93;;
74519;SDS011;63002;48.134;-1.948;2024-01-25T18:59:03;64.18;;;24.92;;
74519;SDS011;63002;48.134;-1.948;2024-01-25T19:01:29;103.70;;;40.67;;
74519;SDS011;63002;48.134;-1.948;2024-01-25T19:03:55;114.77;;;45.87;;
74519;SDS011;63002;48.134;-1.948;2024-01-25T19:06:22;144.32;;;53.85;;
74519;SDS011;63002;48.134;-1.948;2024-01-25T19:08:57;141.73;;;56.33;;
74519;SDS011;63002;48.134;-1.948;2024-01-25T19:11:22;159.43;;;62.30;;
74519;SDS011;63002;48.134;-1.948;2024-01-25T19:13:48;155.73;;;65.20;;
74519;SDS011;63002;48.134;-1.948;2024-01-25T19:16:14;176.13;;;65.80;;
74519;SDS011;63002;48.134;-1.948;2024-01-25T19:18:39;201.75;;;82.35;;
74519;SDS011;63002;48.134;-1.948;2024-01-25T19:21:06;308.90;;;144.80;;
74519;SDS011;63002;48.134;-1.948;2024-01-25T19:23:32;357.10;;;166.52;;
74519;SDS011;63002;48.134;-1.948;2024-01-25T19:25:58;402.25;;;188.23;;
74519;SDS011;63002;48.134;-1.948;2024-01-25T19:28:24;403.85;;;189.45;;
74519;SDS011;63002;48.134;-1.948;2024-01-25T19:30:49;389.40;;;187.70;;
74519;SDS011;63002;48.134;-1.948;2024-01-25T19:33:15;381.55;;;189.43;;
74519;SDS011;63002;48.134;-1.948;2024-01-25T19:35:41;381.87;;;186.33;;
74519;SDS011;63002;48.134;-1.948;2024-01-25T19:38:14;384.67;;;179.95;;
74519;SDS011;63002;48.134;-1.948;2024-01-25T19:40:40;368.00;;;178.52;;
74519;SDS011;63002;48.134;-1.948;2024-01-25T19:43:07;363.52;;;174.43;;
74519;SDS011;63002;48.134;-1.948;2024-01-25T19:45:32;351.83;;;166.80;;
74519;SDS011;63002;48.134;-1.948;2024-01-25T19:47:58;354.55;;;168.88;;
74519;SDS011;63002;48.134;-1.948;2024-01-25T19:50:24;350.30;;;164.10;;
74519;SDS011;63002;48.134;-1.948;2024-01-25T19:52:49;356.83;;;170.48;;
74519;SDS011;63002;48.134;-1.948;2024-01-25T19:55:15;339.83;;;161.57;;
74519;SDS011;63002;48.134;-1.948;2024-01-25T19:57:41;324.57;;;154.73;;
74519;SDS011;63002;48.134;-1.948;2024-01-25T20:00:07;316.85;;;154.35;;
74519;SDS011;63002;48.134;-1.948;2024-01-25T20:02:34;315.05;;;151.85;;
74519;SDS011;63002;48.134;-1.948;2024-01-25T20:05:00;282.42;;;141.70;;
74519;SDS011;63002;48.134;-1.948;2024-01-25T20:07:26;292.20;;;136.32;;
74519;SDS011;63002;48.134;-1.948;2024-01-25T20:09:52;282.00;;;139.45;;
74519;SDS011;63002;48.134;-1.948;2024-01-25T20:12:18;252.23;;;125.93;;
74519;SDS011;63002;48.134;-1.948;2024-01-25T20:14:46;261.30;;;130.68;;
74519;SDS011;63002;48.134;-1.948;2024-01-25T20:17:17;255.73;;;123.78;;
74519;SDS011;63002;48.134;-1.948;2024-01-25T20:19:47;235.32;;;117.45;;
74519;SDS011;63002;48.134;-1.948;2024-01-25T20:22:20;217.77;;;116.20;;